KGCK

Garden City Regional Airport

Garden City, Kansas, USA
METAR KGCK 231054Z AUTO 05010KT 10SM CLR 07/07 A3020 RMK AO2 SLP217 T00720067
Observed Flight Rules
Oct-23 @ 10:54 UTC (55 minutes ago) Visual Flight Rules
Wind Visibility Clouds
50° at 10 knots 10 miles
  • Clear skies
Temperatures Readings
Current 7°C / 45°F
Dewpoint 7°C / 45°F
Humidity 100%
Altimeter 30.2" Hg
Pressure 1021.7 hPa
Elevation 877
METAR KGCK 231054Z AUTO 05010KT 10SM CLR 07/07 A3020 RMK AO2 SLP217 T00720067
Observed Flight Rules
Oct-23 @ 10:54 UTC
(55 minutes ago)
VFR
Wind Visibility
50° at 10 knots 10 miles
Clouds
  • Clear skies
Temperature Dewpoint
7°C / 45°F 7°C / 45°F
Humidity Altimeter Pressure
100% 30.2" Hg 1021.7 hPa